ADDS METAR Data INFO
IDs: Format: Raw Decoded Include TAF

Data at: 0218 UTC 18 Jan 2018

PAHO 180153Z 00000KT 10SM BKN055 OVC150 02/00 A2935 RMK AO2 SLP941 T00220000
PAHO 180053Z 00000KT 10SM BKN047 OVC065 04/01 A2934 RMK AO2 SLP934 T00440011
PAHO 172353Z 00000KT 10SM BKN045 04/01 A2932 RMK AO2 SLP929 T00440011 10061 20039 51010
PAHO 172253Z 10003KT 10SM CLR 04/01 A2931 RMK AO2 SLP925 T00440011
PAHO 172153Z 08007KT 10SM SCT040 06/02 A2931 RMK AO2 SLP924 T00610017
PAHO 172053Z 07005KT 10SM SCT045 BKN100 05/02 A2929 RMK AO2 SLP919 T00500022 51023
PAHO 171953Z 08008KT 10SM BKN049 04/02 A2927 RMK AO2 SLP912 T00440017
PAHO 171853Z 07012KT 10SM BKN048 OVC070 05/02 A2925 RMK AO2 SLP904 T00500017
PAHO 171753Z 06007KT 10SM SCT065 SCT120 04/01 A2922 RMK AO2 SLP895 60000 T00390006 10050 20033 53019
PAHO 171653Z 07008KT 10SM BKN048 BKN060 OVC070 04/01 A2920 RMK AO2 RAB24E42 SLP887 P0000 T00440011
PAHO 171553Z 07007KT 10SM SCT050 OVC070 04/01 A2918 RMK AO2 SLP881 T00440006
PAHO 171453Z 06008KT 10SM BKN100 04/01 A2917 RMK AO2 SLP876 T00440006 53009
PAHO 171353Z AUTO 04007KT 10SM OVC050 04/01 A2915 RMK AO2 SLP871 T00440011 TSNO
PAHO 171253Z AUTO 03005KT 10SM OVC050 04/01 A2914 RMK AO2 SLP869 T00390011 TSNO
PAHO 171153Z AUTO 05008KT 10SM OVC055 04/02 A2914 RMK AO2 SLP867 60015 70021 T00440017 10061 20039 51012 TSNO
PAHO 171053Z AUTO 05011KT 10SM FEW029 FEW035 04/02 A2913 RMK AO2 RAE37 SLP863 P0001 T00440017 TSNO
PAHO 170953Z AUTO 05009KT 10SM -RA BKN035 OVC049 04/02 A2912 RMK AO2 SLP862 P0004 T00440022 TSNO
PAHO 170853Z AUTO 04006KT 9SM -RA OVC027 04/02 A2910 RMK AO2 SLP855 P0004 60010 T00440022 400721011 51012 TSNO
PAHO 170753Z AUTO 04011KT 7SM -RA OVC027 06/02 A2909 RMK AO2 SLP850 P0005 T00560022 TSNO
PAHO 170653Z AUTO 04015G19KT 10SM -RA OVC038 06/02 A2907 RMK AO2 RAB0555 SLP843 P0001 T00610017 TSNO
PAHO 170553Z 04008KT 10SM OVC046 06/02 A2907 RMK AO2 RAE04 SLP844 P0000 60004 T00560017 10072 20050 56002
PAHO 170453Z 04008KT 10SM -RA OVC042 05/02 A2907 RMK AO2 SLP844 P0001 T00500017
PAHO 170353Z 04010KT 10SM -RA OVC035 06/02 A2907 RMK AO2 SLP845 P0002 T00560022
PAHO 170253Z 06010G17KT 10SM -RA OVC034 06/02 A2908 RMK AO2 SLP846 P0001 60001 T00610022 55002
PAHO 170153Z 05010KT 10SM -RA OVC042 07/01 A2907 RMK AO2 RAB46 SLP844 P0000 T00670011
PAHO 170053Z 06010KT 10SM OVC060 07/02 A2906 RMK AO2 RAB20E44 SLP842 P0000 T00670017
PAHO 162353Z 10006KT 10SM BKN055 OVC070 07/02 A2908 RMK AO2 SLP849 T00670017 10067 20017 58010
PAHO 162253Z VRB03KT 10SM FEW042 FEW049 OVC060 04/02 A2910 RMK AO2 SLP855 T00440017
PAHO 162153Z 17003KT 10SM SCT050 BKN060 06/02 A2911 RMK AO2 SLP860 T00610017
PAHO 162053Z 00000KT 10SM SCT049 BKN060 04/02 A2911 RMK AO2 SLP859 T00440017 50006
PAHO 161953Z 00000KT 10SM SCT050 03/01 A2912 RMK AO2 SLP861 T00280006
PAHO 161853Z 10003KT 10SM SCT055 02/00 A2911 RMK AO2 SLP857 T00170000
PAHO 161753Z VRB03KT 10SM FEW042 OVC050 03/01 A2909 RMK AO2 SLP853 60002 T00280006 10028 20000 56018
PAHO 161653Z 03005KT 10SM OVC050 02/01 A2910 RMK AO2 SLP855 T00220006
PAHO 161553Z 06007KT 9SM OVC050 02/00 A2911 RMK AO2 SNE48 SLP857 P0000 T00170000
PAHO 161453Z 05004KT 10SM -SN OVC050 01/M01 A2915 RMK AO2 UPB42E51SNE42B52 SLP871 P0001 60002 T00111006 56044